createdAt,value
2024-01-27T00:00:05.639Z,3.33
2024-01-27T00:02:33.796Z,3.73
2024-01-27T00:05:02.052Z,4.80
2024-01-27T00:07:30.330Z,4.57
2024-01-27T00:10:00.332Z,5.00
2024-01-27T00:12:30.411Z,6.90
2024-01-27T00:14:58.910Z,10.03
2024-01-27T00:17:28.996Z,3.20
2024-01-27T00:19:57.523Z,6.13
2024-01-27T00:22:26.137Z,4.93
2024-01-27T00:24:54.599Z,3.60
2024-01-27T00:27:22.849Z,2.80
2024-01-27T00:29:52.757Z,3.23
2024-01-27T00:32:21.236Z,4.77
2024-01-27T00:34:49.767Z,4.80
2024-01-27T00:37:18.913Z,6.67
2024-01-27T00:39:47.688Z,3.53
2024-01-27T00:42:16.001Z,3.33
2024-01-27T00:44:44.627Z,4.33
2024-01-27T00:47:14.313Z,6.47
2024-01-27T00:49:42.954Z,3.93
2024-01-27T00:52:11.178Z,7.50
2024-01-27T00:54:39.338Z,6.40
2024-01-27T00:57:07.916Z,3.43
2024-01-27T00:59:36.388Z,3.43
2024-01-27T01:02:04.771Z,5.70
2024-01-27T01:04:34.640Z,3.97
2024-01-27T01:07:03.007Z,2.40
2024-01-27T01:09:31.649Z,5.47
2024-01-27T01:11:59.940Z,3.07
2024-01-27T01:14:28.419Z,4.47
2024-01-27T01:16:56.613Z,3.30
2024-01-27T01:19:24.874Z,6.17
2024-01-27T01:21:54.797Z,4.10
2024-01-27T01:24:23.025Z,5.67
2024-01-27T01:26:51.521Z,5.03
2024-01-27T01:29:19.678Z,3.93
2024-01-27T01:31:48.135Z,8.00
2024-01-27T01:34:17.209Z,4.37
2024-01-27T01:36:46.424Z,4.83
2024-01-27T01:39:16.380Z,4.53
2024-01-27T01:41:44.764Z,6.33
2024-01-27T01:44:13.245Z,8.13
2024-01-27T01:46:41.506Z,4.43
2024-01-27T01:49:10.477Z,4.57
2024-01-27T01:51:39.120Z,4.43
2024-01-27T01:54:09.252Z,5.07
2024-01-27T01:56:39.754Z,2.60
2024-01-27T01:59:08.236Z,7.43
2024-01-27T02:01:36.719Z,5.03
2024-01-27T02:04:06.974Z,3.80
2024-01-27T02:06:35.612Z,5.27
2024-01-27T02:09:04.028Z,8.30
2024-01-27T02:11:32.578Z,4.53
2024-01-27T02:14:02.456Z,6.33
2024-01-27T02:16:30.615Z,5.07
2024-01-27T02:18:59.297Z,5.00
2024-01-27T02:21:27.569Z,5.90
2024-01-27T02:23:55.819Z,4.33
2024-01-27T02:26:25.699Z,6.83
2024-01-27T02:28:53.832Z,6.17
2024-01-27T02:31:22.378Z,5.10
2024-01-27T02:33:50.919Z,5.37
2024-01-27T02:36:19.212Z,6.37
2024-01-27T02:38:47.441Z,4.60
2024-01-27T02:41:16.182Z,5.27
2024-01-27T02:43:46.051Z,6.17
2024-01-27T02:46:16.817Z,3.40
2024-01-27T02:48:45.507Z,4.67
2024-01-27T02:51:14.170Z,4.70
2024-01-27T02:53:42.687Z,5.80
2024-01-27T02:56:11.308Z,6.80
2024-01-27T02:58:39.522Z,4.10
2024-01-27T03:01:09.153Z,4.33
2024-01-27T03:03:37.961Z,5.23
2024-01-27T03:06:07.154Z,21.47
2024-01-27T03:08:35.534Z,9.10
2024-01-27T03:11:03.961Z,4.13
2024-01-27T03:13:32.379Z,4.47
2024-01-27T03:16:00.524Z,5.20
2024-01-27T03:18:30.607Z,5.63
2024-01-27T03:20:58.815Z,5.73
2024-01-27T03:23:27.287Z,4.77
2024-01-27T03:25:55.733Z,5.70
2024-01-27T03:28:24.241Z,4.63
2024-01-27T03:30:52.384Z,4.77
2024-01-27T03:33:20.678Z,9.40
2024-01-27T03:35:50.689Z,5.57
2024-01-27T03:38:18.937Z,8.33
2024-01-27T03:40:47.197Z,3.47
2024-01-27T03:43:15.704Z,5.97
2024-01-27T03:45:44.026Z,6.27
2024-01-27T03:48:12.672Z,6.10
2024-01-27T03:50:40.926Z,5.07
2024-01-27T03:53:10.781Z,4.77
2024-01-27T03:55:39.088Z,4.47
2024-01-27T03:58:07.264Z,7.73
2024-01-27T04:00:35.536Z,6.27
2024-01-27T04:03:04.270Z,5.03
2024-01-27T04:05:32.988Z,5.53
2024-01-27T04:08:01.154Z,4.77
2024-01-27T04:10:30.997Z,7.80
2024-01-27T04:12:59.228Z,7.23
2024-01-27T04:15:27.427Z,5.67
2024-01-27T04:17:57.056Z,8.33
2024-01-27T04:20:25.331Z,8.57
2024-01-27T04:22:53.904Z,5.43
2024-01-27T04:25:22.309Z,8.43
2024-01-27T04:27:52.118Z,6.30
2024-01-27T04:30:20.770Z,6.67
2024-01-27T04:32:50.733Z,5.47
2024-01-27T04:35:18.946Z,7.13
2024-01-27T04:37:47.566Z,7.27
2024-01-27T04:40:16.716Z,7.27
2024-01-27T04:42:45.116Z,5.60
2024-01-27T04:45:17.598Z,9.27
2024-01-27T04:47:46.238Z,4.97
2024-01-27T04:50:14.639Z,5.67
2024-01-27T04:52:43.228Z,5.87
2024-01-27T04:55:11.500Z,5.77
2024-01-27T04:57:39.764Z,4.20
2024-01-27T05:00:13.664Z,6.83
2024-01-27T05:02:44.940Z,3.80
2024-01-27T05:05:13.320Z,5.97
2024-01-27T05:07:41.792Z,5.33
2024-01-27T05:10:13.306Z,5.33
2024-01-27T05:12:41.614Z,6.53
2024-01-27T05:15:11.180Z,5.20
2024-01-27T05:17:39.433Z,5.83
2024-01-27T05:20:10.373Z,8.00
2024-01-27T05:22:38.796Z,5.40
2024-01-27T05:25:07.807Z,6.73
2024-01-27T05:27:36.352Z,7.63
2024-01-27T05:30:04.876Z,3.53
2024-01-27T05:32:32.367Z,5.93
2024-01-27T05:35:00.593Z,6.20
2024-01-27T05:37:30.421Z,6.80
2024-01-27T05:39:58.562Z,5.23
2024-01-27T05:42:27.486Z,9.93
2024-01-27T05:44:55.961Z,5.83
2024-01-27T05:47:24.433Z,6.63
2024-01-27T05:49:52.686Z,6.23
2024-01-27T05:52:25.027Z,7.20
2024-01-27T05:54:55.454Z,8.83
2024-01-27T05:57:24.047Z,5.60
2024-01-27T05:59:52.276Z,4.93
2024-01-27T06:02:20.448Z,10.30
2024-01-27T06:04:49.009Z,8.80
2024-01-27T06:07:17.313Z,8.83
2024-01-27T06:09:45.602Z,8.63
2024-01-27T06:12:15.198Z,8.30
2024-01-27T06:14:44.169Z,7.07
2024-01-27T06:17:12.333Z,6.70
2024-01-27T06:19:41.054Z,6.97
2024-01-27T06:22:09.425Z,7.43
2024-01-27T06:24:37.917Z,6.20
2024-01-27T06:27:06.375Z,5.40
2024-01-27T06:29:36.225Z,11.00
2024-01-27T06:32:04.948Z,5.77
2024-01-27T06:34:35.022Z,7.13
2024-01-27T06:37:03.954Z,6.60
2024-01-27T06:39:32.458Z,6.03
2024-01-27T06:42:00.723Z,6.20
2024-01-27T06:44:28.880Z,5.93
2024-01-27T06:46:58.726Z,6.00
2024-01-27T06:49:27.336Z,7.27
2024-01-27T06:51:55.827Z,4.77
2024-01-27T06:54:24.036Z,5.60
2024-01-27T06:56:52.553Z,7.33
2024-01-27T06:59:21.058Z,9.30
2024-01-27T07:01:49.696Z,5.60
2024-01-27T07:04:19.553Z,7.87
2024-01-27T07:06:49.035Z,5.90
2024-01-27T07:09:17.667Z,7.53
2024-01-27T07:11:46.982Z,8.67
2024-01-27T07:14:15.698Z,14.63
2024-01-27T07:16:44.116Z,8.10
2024-01-27T07:19:13.082Z,4.80
2024-01-27T07:21:42.788Z,7.30
2024-01-27T07:24:11.102Z,6.60
2024-01-27T07:26:39.252Z,7.10
2024-01-27T07:29:07.756Z,6.13
2024-01-27T07:31:36.425Z,9.63
2024-01-27T07:34:07.786Z,5.00
2024-01-27T07:36:36.027Z,9.40
2024-01-27T07:39:06.646Z,7.03
2024-01-27T07:41:34.837Z,6.17
2024-01-27T07:44:10.677Z,4.23
2024-01-27T07:46:38.892Z,7.37
2024-01-27T07:49:08.280Z,7.63
2024-01-27T07:51:36.895Z,9.50
2024-01-27T07:54:06.670Z,8.53
2024-01-27T07:56:35.084Z,7.07
2024-01-27T07:59:03.301Z,6.97
2024-01-27T08:01:31.608Z,6.63
2024-01-27T08:04:00.203Z,8.00
2024-01-27T08:06:31.348Z,5.50
2024-01-27T08:09:00.615Z,4.97
2024-01-27T08:11:32.841Z,10.93
2024-01-27T08:14:02.889Z,6.13
2024-01-27T08:16:31.316Z,6.00
2024-01-27T08:18:59.723Z,6.30
2024-01-27T08:21:28.366Z,4.83
2024-01-27T08:23:56.741Z,5.93
2024-01-27T08:26:25.225Z,6.90
2024-01-27T08:28:55.648Z,6.63
2024-01-27T08:31:24.222Z,7.23
2024-01-27T08:33:53.478Z,5.63
2024-01-27T08:36:22.167Z,6.07
2024-01-27T08:38:50.409Z,6.87
2024-01-27T08:41:18.950Z,7.23
2024-01-27T08:43:47.433Z,6.23
2024-01-27T08:46:18.825Z,7.17
2024-01-27T08:48:47.123Z,6.37
2024-01-27T08:51:17.363Z,6.07
2024-01-27T08:53:50.296Z,7.47
2024-01-27T08:56:19.319Z,4.63
2024-01-27T08:58:48.811Z,8.57
2024-01-27T09:01:19.862Z,8.83
2024-01-27T09:03:48.556Z,7.00
2024-01-27T09:06:18.197Z,11.83
2024-01-27T09:08:47.036Z,8.03
2024-01-27T09:11:15.497Z,7.40
2024-01-27T09:13:45.820Z,6.00
2024-01-27T09:16:15.989Z,5.80
2024-01-27T09:18:45.770Z,9.20
2024-01-27T09:21:16.193Z,6.27
2024-01-27T09:23:44.670Z,6.03
2024-01-27T09:26:13.545Z,7.27
2024-01-27T09:28:44.781Z,7.03
2024-01-27T09:31:13.031Z,4.23
2024-01-27T09:33:41.291Z,6.43
2024-01-27T09:36:10.957Z,5.47
2024-01-27T09:38:39.439Z,7.27
2024-01-27T09:41:08.047Z,7.90
2024-01-27T09:43:37.656Z,5.27
2024-01-27T09:46:06.709Z,6.67
2024-01-27T09:48:35.733Z,12.60
2024-01-27T09:51:05.624Z,5.37
2024-01-27T09:53:35.564Z,6.83
2024-01-27T09:56:06.294Z,7.23
2024-01-27T09:58:34.606Z,5.80
2024-01-27T10:01:04.008Z,10.73
2024-01-27T10:03:34.114Z,7.77
2024-01-27T10:06:04.113Z,8.03
2024-01-27T10:08:32.762Z,9.63
2024-01-27T10:11:08.695Z,7.77
2024-01-27T10:13:37.006Z,6.40
2024-01-27T10:16:06.505Z,6.70
2024-01-27T10:18:35.514Z,6.90
2024-01-27T10:21:15.288Z,10.93
2024-01-27T10:23:43.616Z,7.40
2024-01-27T10:26:13.832Z,8.23
2024-01-27T10:28:43.599Z,10.00
2024-01-27T10:31:12.988Z,10.97
2024-01-27T10:33:41.610Z,7.97
2024-01-27T10:36:11.065Z,7.60
2024-01-27T10:38:41.127Z,8.03
2024-01-27T10:41:12.863Z,7.63
2024-01-27T10:43:41.992Z,9.13
2024-01-27T10:46:12.408Z,9.37
2024-01-27T10:48:42.350Z,7.80
2024-01-27T10:51:11.985Z,9.57
2024-01-27T10:53:42.346Z,7.60
2024-01-27T10:56:12.379Z,7.53
2024-01-27T10:58:43.532Z,6.27
2024-01-27T11:01:13.594Z,11.27
2024-01-27T11:03:43.191Z,11.63
2024-01-27T11:06:11.927Z,6.07
2024-01-27T11:08:43.962Z,6.13
2024-01-27T11:11:14.484Z,5.13
2024-01-27T11:13:43.006Z,11.43
2024-01-27T11:16:18.695Z,8.83
2024-01-27T11:18:47.589Z,8.60
2024-01-27T11:21:17.482Z,7.33
2024-01-27T11:23:48.658Z,5.63
2024-01-27T11:26:24.319Z,8.50
2024-01-27T11:28:53.140Z,6.63
2024-01-27T11:31:22.573Z,7.40
2024-01-27T11:33:53.785Z,6.77
2024-01-27T11:36:25.208Z,6.77
2024-01-27T11:38:55.422Z,10.83
2024-01-27T11:41:29.573Z,5.57
2024-01-27T11:43:58.786Z,6.30
2024-01-27T11:46:34.218Z,5.20
2024-01-27T11:49:02.738Z,9.00
2024-01-27T11:51:31.018Z,8.53
2024-01-27T11:53:59.304Z,8.53
2024-01-27T11:56:29.779Z,6.13
2024-01-27T11:58:57.895Z,7.37
2024-01-27T12:01:26.563Z,8.17
2024-01-27T12:03:54.980Z,6.17
2024-01-27T12:06:23.703Z,5.23
2024-01-27T12:08:54.970Z,7.07
2024-01-27T12:11:25.363Z,6.00
2024-01-27T12:13:55.782Z,9.30
2024-01-27T12:16:25.169Z,5.97
2024-01-27T12:18:56.697Z,5.07
2024-01-27T12:21:26.225Z,4.50
2024-01-27T12:23:56.048Z,5.40
2024-01-27T12:26:25.242Z,6.53
2024-01-27T12:28:56.989Z,8.23
2024-01-27T12:31:26.004Z,7.20
2024-01-27T12:33:57.203Z,9.20
2024-01-27T12:36:26.207Z,7.33
2024-01-27T12:38:59.682Z,5.27
2024-01-27T12:41:29.208Z,4.40
2024-01-27T12:43:59.616Z,7.33
2024-01-27T12:46:29.414Z,10.68
2024-01-27T12:48:58.180Z,5.88
2024-01-27T12:51:26.617Z,6.67
2024-01-27T12:53:55.126Z,5.13
2024-01-27T12:56:23.406Z,4.63
2024-01-27T12:58:52.628Z,5.37
2024-01-27T13:01:22.236Z,7.13
2024-01-27T13:03:52.502Z,5.73
2024-01-27T13:06:22.046Z,5.35
2024-01-27T13:08:50.751Z,5.32
2024-01-27T13:11:19.145Z,4.72
2024-01-27T13:13:50.585Z,9.90
2024-01-27T13:16:19.397Z,5.78
2024-01-27T13:18:49.542Z,6.90
2024-01-27T13:21:18.076Z,7.72
2024-01-27T13:23:46.723Z,5.93
2024-01-27T13:26:18.784Z,5.00
2024-01-27T13:28:50.944Z,4.78
2024-01-27T13:31:20.118Z,6.88
2024-01-27T13:33:50.242Z,6.10
2024-01-27T13:36:19.645Z,4.68
2024-01-27T13:38:48.715Z,5.28
2024-01-27T13:41:18.904Z,5.72
2024-01-27T13:43:47.416Z,7.45
2024-01-27T13:46:16.035Z,5.40
2024-01-27T13:48:44.646Z,5.47
2024-01-27T13:51:14.551Z,6.03
2024-01-27T13:53:47.222Z,6.63
2024-01-27T13:56:16.727Z,6.45
2024-01-27T13:58:45.446Z,4.82
2024-01-27T14:01:13.645Z,5.35
2024-01-27T14:03:42.109Z,7.82
2024-01-27T14:06:14.440Z,5.25
2024-01-27T14:08:44.376Z,4.45
2024-01-27T14:11:12.859Z,5.88
2024-01-27T14:13:41.024Z,5.90
2024-01-27T14:16:09.494Z,3.72
2024-01-27T14:18:37.910Z,4.80
2024-01-27T14:21:06.872Z,5.45
2024-01-27T14:23:35.039Z,6.40
2024-01-27T14:26:04.959Z,6.65
2024-01-27T14:28:33.457Z,3.90
2024-01-27T14:31:01.557Z,5.28
2024-01-27T14:33:30.157Z,5.43
2024-01-27T14:35:58.401Z,6.75
2024-01-27T14:38:26.594Z,5.35
2024-01-27T14:40:55.270Z,4.35
2024-01-27T14:43:24.907Z,3.50
2024-01-27T14:45:53.488Z,6.85
2024-01-27T14:48:22.028Z,8.23
2024-01-27T14:50:54.238Z,5.53
2024-01-27T14:53:22.431Z,6.80
2024-01-27T14:55:50.975Z,4.38
2024-01-27T14:58:19.489Z,4.95
2024-01-27T15:00:53.881Z,8.30
2024-01-27T15:03:23.611Z,4.90
2024-01-27T15:05:52.238Z,4.95
2024-01-27T15:08:21.465Z,7.45
2024-01-27T15:10:49.675Z,7.10
2024-01-27T15:13:21.833Z,6.53
2024-01-27T15:15:51.481Z,6.45
2024-01-27T15:18:20.185Z,9.32
2024-01-27T15:20:48.802Z,5.87
2024-01-27T15:23:17.321Z,7.38
2024-01-27T15:25:45.869Z,4.85
2024-01-27T15:28:14.292Z,5.05
2024-01-27T15:30:43.276Z,6.40
2024-01-27T15:33:13.471Z,8.25
2024-01-27T15:35:41.967Z,10.47
2024-01-27T15:38:11.208Z,6.00
2024-01-27T15:40:39.639Z,5.87
2024-01-27T15:43:08.816Z,6.32
2024-01-27T15:45:37.390Z,4.25
2024-01-27T15:48:05.978Z,5.22
2024-01-27T15:50:35.875Z,5.83
2024-01-27T15:53:04.571Z,6.20
2024-01-27T15:55:34.575Z,6.13
2024-01-27T15:58:03.356Z,9.30
2024-01-27T16:00:31.853Z,5.53
2024-01-27T16:03:00.381Z,6.20
2024-01-27T16:05:28.556Z,5.47
2024-01-27T16:07:58.364Z,7.40
2024-01-27T16:10:26.534Z,5.50
2024-01-27T16:12:55.054Z,7.60
2024-01-27T16:15:23.257Z,7.73
2024-01-27T16:17:52.584Z,6.13
2024-01-27T16:20:20.923Z,6.67
2024-01-27T16:25:36.158Z,9.90
2024-01-27T16:28:04.323Z,5.33
2024-01-27T16:30:32.777Z,5.03
2024-01-27T16:33:01.043Z,4.07
2024-01-27T16:35:29.530Z,5.87
2024-01-27T16:37:57.685Z,3.37
2024-01-27T16:40:26.100Z,7.53
2024-01-27T16:42:55.877Z,4.67
2024-01-27T16:45:24.033Z,6.20
2024-01-27T16:47:52.223Z,4.93
2024-01-27T16:50:20.793Z,6.07
2024-01-27T16:52:49.379Z,9.17
2024-01-27T16:55:18.265Z,7.17
2024-01-27T16:57:46.525Z,8.17
2024-01-27T17:00:17.130Z,11.03
2024-01-27T17:02:45.984Z,9.37
2024-01-27T17:05:14.528Z,7.27
2024-01-27T17:07:43.976Z,6.90
2024-01-27T17:10:12.068Z,11.30
2024-01-27T17:12:40.371Z,10.20
2024-01-27T17:15:11.918Z,8.47
2024-01-27T17:17:42.575Z,10.53
2024-01-27T17:20:11.416Z,12.77
2024-01-27T17:22:39.555Z,14.70
2024-01-27T17:25:09.482Z,12.33
2024-01-27T17:27:37.798Z,12.97
2024-01-27T17:30:10.869Z,12.57
2024-01-27T17:32:43.809Z,11.97
2024-01-27T17:35:13.986Z,11.10
2024-01-27T17:37:42.463Z,13.97
2024-01-27T17:40:11.879Z,14.50
2024-01-27T17:42:40.486Z,13.37
2024-01-27T17:45:09.465Z,12.83
2024-01-27T17:47:38.579Z,12.10
2024-01-27T17:50:08.230Z,9.53
2024-01-27T17:52:40.445Z,13.30
2024-01-27T17:55:11.570Z,12.27
2024-01-27T17:57:40.384Z,13.20
2024-01-27T18:00:11.549Z,15.37
2024-01-27T18:02:40.298Z,10.43
2024-01-27T18:05:10.490Z,14.27
2024-01-27T18:07:40.278Z,8.53
2024-01-27T18:10:10.345Z,11.30
2024-01-27T18:12:42.404Z,11.50
2024-01-27T18:15:12.089Z,10.67
2024-01-27T18:17:40.490Z,6.70
2024-01-27T18:20:11.214Z,8.63
2024-01-27T18:22:41.134Z,8.93
2024-01-27T18:25:10.051Z,11.13
2024-01-27T18:27:43.266Z,6.03
2024-01-27T18:30:14.179Z,5.93
2024-01-27T18:32:44.288Z,7.03
2024-01-27T18:35:14.063Z,6.60
2024-01-27T18:37:44.007Z,8.00
2024-01-27T18:40:12.932Z,8.30
2024-01-27T18:42:41.122Z,9.20
2024-01-27T18:45:11.143Z,7.20
2024-01-27T18:47:43.720Z,7.63
2024-01-27T18:50:13.410Z,8.93
2024-01-27T18:52:43.458Z,11.27
2024-01-27T18:55:13.231Z,9.47
2024-01-27T18:57:41.435Z,12.00
2024-01-27T19:00:11.126Z,12.87
2024-01-27T19:02:39.357Z,11.37
2024-01-27T19:05:09.367Z,13.73
2024-01-27T19:07:39.052Z,13.43
2024-01-27T19:10:09.667Z,18.47
2024-01-27T19:12:38.271Z,16.77
2024-01-27T19:15:07.268Z,21.63
2024-01-27T19:17:35.888Z,14.53
2024-01-27T19:20:03.356Z,13.40
2024-01-27T19:22:31.924Z,18.53
2024-01-27T19:25:00.341Z,17.63
2024-01-27T19:27:31.831Z,21.33
2024-01-27T19:30:00.307Z,16.73
2024-01-27T19:32:28.899Z,23.00
2024-01-27T19:34:57.236Z,18.87
2024-01-27T19:37:25.582Z,17.83
2024-01-27T19:39:53.716Z,13.83
2024-01-27T19:42:21.952Z,14.77
2024-01-27T19:44:51.581Z,22.27
2024-01-27T19:47:19.774Z,21.30
2024-01-27T19:49:48.105Z,21.80
2024-01-27T19:52:18.181Z,20.10
2024-01-27T19:54:46.539Z,21.03
2024-01-27T19:57:15.345Z,29.40
2024-01-27T19:59:43.566Z,25.47
2024-01-27T20:02:13.889Z,21.00
2024-01-27T20:04:44.054Z,15.23
2024-01-27T20:07:12.385Z,14.17
2024-01-27T20:09:41.604Z,10.67
2024-01-27T20:12:10.200Z,9.43
2024-01-27T20:14:38.427Z,8.67
2024-01-27T20:17:06.921Z,10.63
2024-01-27T20:19:37.257Z,11.20
2024-01-27T20:22:06.727Z,9.53
2024-01-27T20:24:35.579Z,10.53
2024-01-27T20:27:04.035Z,10.13
2024-01-27T20:29:32.522Z,10.57
2024-01-27T20:32:02.915Z,10.37
2024-01-27T20:34:32.982Z,11.37
2024-01-27T20:37:02.626Z,10.87
2024-01-27T20:39:32.405Z,10.93
2024-01-27T20:42:00.932Z,11.93
2024-01-27T20:44:29.078Z,10.50
2024-01-27T20:46:58.143Z,10.33
2024-01-27T20:49:26.418Z,9.83
2024-01-27T20:51:54.959Z,9.97
2024-01-27T20:54:24.846Z,8.53
2024-01-27T20:56:55.229Z,8.10
2024-01-27T20:59:23.725Z,9.07
2024-01-27T21:01:53.037Z,12.33
2024-01-27T21:04:26.279Z,8.50
2024-01-27T21:06:54.746Z,11.03
2024-01-27T21:09:26.419Z,8.57
2024-01-27T21:11:54.604Z,7.57
2024-01-27T21:14:22.871Z,9.97
2024-01-27T21:16:53.062Z,12.23
2024-01-27T21:19:21.309Z,9.47
2024-01-27T21:21:50.013Z,10.57
2024-01-27T21:24:18.254Z,10.13
2024-01-27T21:26:47.903Z,12.30
2024-01-27T21:29:16.188Z,13.97
2024-01-27T21:31:44.614Z,18.73
2024-01-27T21:34:12.945Z,18.90
2024-01-27T21:36:41.660Z,18.17
2024-01-27T21:39:11.311Z,20.60
2024-01-27T21:41:39.815Z,17.83
2024-01-27T21:44:09.355Z,18.17
2024-01-27T21:46:37.505Z,15.27
2024-01-27T21:49:08.750Z,15.80
2024-01-27T21:51:37.615Z,14.97
2024-01-27T21:54:06.321Z,13.53
2024-01-27T21:56:35.964Z,12.30
2024-01-27T21:59:06.571Z,13.77
2024-01-27T22:01:36.264Z,20.67
2024-01-27T22:04:05.168Z,30.60
2024-01-27T22:06:33.917Z,24.90
2024-01-27T22:09:02.479Z,31.30
2024-01-27T22:11:31.344Z,24.17
2024-01-27T22:13:59.772Z,21.47
2024-01-27T22:16:28.035Z,23.47
2024-01-27T22:18:58.021Z,24.20
2024-01-27T22:21:28.777Z,19.10
2024-01-27T22:23:58.789Z,15.80
2024-01-27T22:26:27.307Z,13.90
2024-01-27T22:28:55.416Z,12.23
2024-01-27T22:31:23.830Z,11.40
2024-01-27T22:33:52.420Z,8.50
2024-01-27T22:36:22.105Z,10.10
2024-01-27T22:38:52.360Z,9.60
2024-01-27T22:41:24.117Z,7.53
2024-01-27T22:43:56.760Z,11.33
2024-01-27T22:46:26.131Z,11.67
2024-01-27T22:48:54.670Z,9.53
2024-01-27T22:51:25.882Z,15.30
2024-01-27T22:53:55.554Z,13.93
2024-01-27T22:56:24.118Z,16.33
2024-01-27T22:58:52.318Z,14.00
2024-01-27T23:01:23.418Z,13.63
2024-01-27T23:03:52.041Z,13.60
2024-01-27T23:06:21.012Z,14.33
2024-01-27T23:08:50.761Z,16.63
2024-01-27T23:11:19.187Z,14.63
2024-01-27T23:13:47.725Z,11.07
2024-01-27T23:16:16.659Z,13.53
2024-01-27T23:18:44.954Z,12.30
2024-01-27T23:21:13.345Z,11.43
2024-01-27T23:23:41.495Z,14.20
2024-01-27T23:26:11.341Z,14.40
2024-01-27T23:28:39.807Z,9.37
2024-01-27T23:31:08.231Z,12.13
2024-01-27T23:33:36.502Z,10.87
2024-01-27T23:36:04.950Z,14.47
2024-01-27T23:38:33.365Z,12.97
2024-01-27T23:41:01.487Z,12.43
2024-01-27T23:43:31.065Z,10.87
2024-01-27T23:45:59.258Z,10.47
2024-01-27T23:48:27.923Z,12.50
2024-01-27T23:50:57.097Z,10.43
2024-01-27T23:53:25.850Z,11.67
2024-01-27T23:55:55.357Z,8.63
2024-01-27T23:58:24.646Z,14.83
